Time;durP1;ratioP1;P1;durP2;ratioP2;P2;SDS_P1;SDS_P2;PMS_P1;PMS_P2;Temp;Humidity;BMP_temperature;BMP_pressure;BME280_temperature;BME280_humidity;BME280_pressure;Samples;Min_cycle;Max_cycle;Signal;HPM_P1;HPM_P2
2023/07/03 00:01:14;;;;;;;41.10;37.55;;;21.00;99.90;;;;;;5011770;28;20471;-74
2023/07/03 00:03:40;;;;;;;42.15;38.50;;;21.10;99.90;;;;;;5027717;28;20046;-74
2023/07/03 00:06:06;;;;;;;38.15;34.92;;;21.00;99.90;;;;;;5011967;28;20029;-74
2023/07/03 00:08:32;;;;;;;32.70;29.55;;;21.00;99.90;;;;;;5012542;28;20044;-74
2023/07/03 00:11:02;;;;;;;42.20;39.10;;;21.00;99.90;;;;;;5027455;28;20037;-75
2023/07/03 00:13:29;;;;;;;31.95;28.90;;;21.00;99.90;;;;;;5027724;28;20029;-74
2023/07/03 00:16:01;;;;;;;29.08;25.75;;;21.00;99.90;;;;;;5011826;28;20045;-74
2023/07/03 00:18:28;;;;;;;23.95;21.75;;;21.00;99.90;;;;;;5012524;28;20510;-74
2023/07/03 00:20:54;;;;;;;35.53;32.42;;;21.00;99.90;;;;;;5026835;28;20050;-74
2023/07/03 00:23:21;;;;;;;26.23;23.58;;;21.00;99.90;;;;;;5012370;28;20467;-74
2023/07/03 00:25:48;;;;;;;29.05;26.17;;;21.00;99.90;;;;;;5012183;28;20041;-74
2023/07/03 00:28:14;;;;;;;23.77;20.23;;;21.00;99.90;;;;;;5012472;28;20045;-74
2023/07/03 00:30:40;;;;;;;22.55;20.17;;;21.00;99.90;;;;;;5007284;28;20035;-74
2023/07/03 00:33:06;;;;;;;23.58;20.58;;;20.90;99.90;;;;;;4992822;28;20487;-74
2023/07/03 00:35:32;;;;;;;25.83;22.45;;;20.80;99.90;;;;;;4992105;28;20034;-74
2023/07/03 00:37:59;;;;;;;24.40;19.95;;;20.80;99.90;;;;;;4993076;28;20038;-73
2023/07/03 00:40:25;;;;;;;26.33;22.67;;;20.80;99.90;;;;;;4992555;28;20086;-74
2023/07/03 00:42:52;;;;;;;26.15;23.45;;;20.80;99.90;;;;;;4992758;28;20026;-74
2023/07/03 00:45:19;;;;;;;25.80;23.02;;;20.80;99.90;;;;;;4994620;28;20042;-74
2023/07/03 00:47:45;;;;;;;24.58;21.77;;;20.90;99.90;;;;;;5008053;28;20039;-74
2023/07/03 00:50:11;;;;;;;22.75;20.35;;;20.90;99.90;;;;;;4992395;28;20066;-74
2023/07/03 00:52:38;;;;;;;23.98;21.42;;;20.90;99.90;;;;;;5027308;28;20413;-74
2023/07/03 00:55:05;;;;;;;25.42;22.73;;;21.00;99.90;;;;;;5012176;28;20386;-74
2023/07/03 00:57:31;;;;;;;23.63;21.13;;;21.00;99.90;;;;;;5012318;28;20032;-74
2023/07/03 00:59:58;;;;;;;30.70;23.50;;;21.00;99.90;;;;;;5015948;28;20034;-73
2023/07/03 01:02:30;;;;;;;23.90;21.58;;;21.00;99.90;;;;;;5030100;28;20110;-75
2023/07/03 01:05:01;;;;;;;23.13;20.90;;;21.00;99.90;;;;;;5030591;28;20046;-74
2023/07/03 01:07:29;;;;;;;30.05;27.30;;;21.00;99.90;;;;;;5029891;28;20045;-74
2023/07/03 01:09:58;;;;;;;27.05;24.35;;;21.00;99.90;;;;;;5030991;28;20069;-74
2023/07/03 01:12:25;;;;;;;27.33;24.58;;;21.00;99.90;;;;;;5030189;28;20034;-74
2023/07/03 01:14:53;;;;;;;28.27;25.75;;;20.80;99.90;;;;;;5030666;28;20053;-74
2023/07/03 01:17:19;;;;;;;24.58;22.08;;;20.80;99.90;;;;;;5029452;28;20029;-74
2023/07/03 01:19:46;;;;;;;24.58;22.17;;;20.80;99.90;;;;;;5015098;28;20040;-74
2023/07/03 01:22:28;;;;;;;27.38;24.85;;;20.80;99.90;;;;;;5030305;28;20022;-74
2023/07/03 01:24:55;;;;;;;24.45;22.25;;;20.80;99.90;;;;;;5029140;28;20038;-74
2023/07/03 01:27:23;;;;;;;24.40;22.15;;;20.80;99.90;;;;;;5030201;28;20052;-74
2023/07/03 01:29:50;;;;;;;31.75;29.05;;;20.80;99.90;;;;;;5030422;28;20387;-74
2023/07/03 01:32:19;;;;;;;18.80;16.70;;;20.80;99.90;;;;;;5011791;28;20042;-73
2023/07/03 01:34:45;;;;;;;18.17;16.40;;;20.90;99.90;;;;;;5011359;28;20050;-74
2023/07/03 01:37:15;;;;;;;21.48;18.98;;;20.90;99.90;;;;;;4998952;28;20022;-74
2023/07/03 01:39:42;;;;;;;18.63;15.13;;;20.80;99.90;;;;;;5010594;28;20031;-74
2023/07/03 01:42:08;;;;;;;17.73;15.60;;;20.80;99.90;;;;;;5010289;28;20387;-74
2023/07/03 01:44:34;;;;;;;17.55;15.80;;;20.80;99.90;;;;;;5010155;28;20039;-74
2023/07/03 01:47:08;;;;;;;14.82;11.07;;;20.70;99.90;;;;;;5010348;28;20042;-74
2023/07/03 01:49:34;;;;;;;26.30;24.30;;;20.80;99.90;;;;;;4995635;28;20053;-74
2023/07/03 01:52:19;;;;;;;28.60;26.58;;;20.80;99.90;;;;;;5010209;28;20029;-74
2023/07/03 01:54:55;;;;;;;16.13;14.52;;;20.70;99.90;;;;;;5014905;28;20042;-74
2023/07/03 01:57:28;;;;;;;16.60;15.07;;;20.70;99.90;;;;;;5014463;28;20033;-74
2023/07/03 01:59:54;;;;;;;17.38;15.43;;;20.70;99.90;;;;;;5029455;28;20447;-74
2023/07/03 02:02:23;;;;;;;13.63;11.65;;;20.70;99.90;;;;;;5003795;28;20035;-73
2023/07/03 02:05:05;;;;;;;14.73;12.30;;;20.70;99.90;;;;;;4986872;28;20022;-74
2023/07/03 02:07:31;;;;;;;15.63;13.90;;;20.80;99.90;;;;;;5014448;28;20053;-74
2023/07/03 02:09:57;;;;;;;13.32;12.00;;;20.80;99.90;;;;;;5008176;28;20042;-74
2023/07/03 02:12:23;;;;;;;13.43;12.13;;;20.80;99.90;;;;;;5026701;28;20391;-74
2023/07/03 02:14:49;;;;;;;16.25;12.40;;;20.70;99.90;;;;;;4994013;28;20472;-74
2023/07/03 02:17:15;;;;;;;13.30;11.93;;;20.70;99.90;;;;;;4992615;28;20034;-75
2023/07/03 02:19:42;;;;;;;13.75;12.35;;;20.70;99.90;;;;;;5008685;28;20041;-74
2023/07/03 02:22:08;;;;;;;14.20;12.77;;;20.70;99.90;;;;;;4993227;28;20038;-74
2023/07/03 02:24:34;;;;;;;15.82;14.20;;;20.70;99.90;;;;;;4993587;28;20042;-75
2023/07/03 02:27:00;;;;;;;17.95;14.00;;;20.80;99.90;;;;;;4993091;28;20030;-73
2023/07/03 02:29:26;;;;;;;15.10;13.68;;;20.80;99.90;;;;;;4993808;28;20061;-73
2023/07/03 02:31:52;;;;;;;13.82;12.07;;;20.90;99.90;;;;;;4992318;28;20034;-74
2023/07/03 02:34:20;;;;;;;15.02;13.40;;;20.90;99.90;;;;;;4993218;28;20030;-74
2023/07/03 02:36:47;;;;;;;15.13;13.60;;;20.80;99.90;;;;;;4993283;28;20053;-74
2023/07/03 02:39:13;;;;;;;16.05;12.80;;;20.70;99.90;;;;;;5009475;28;20045;-75
2023/07/03 02:41:39;;;;;;;15.35;12.55;;;20.70;99.90;;;;;;4994211;28;20034;-74
2023/07/03 02:44:06;;;;;;;14.93;12.25;;;20.70;99.90;;;;;;4994606;28;20361;-74
2023/07/03 02:46:32;;;;;;;15.27;11.27;;;20.60;99.90;;;;;;5005437;28;20038;-73
2023/07/03 02:48:58;;;;;;;12.15;10.05;;;20.70;99.90;;;;;;4999624;28;20073;-74
2023/07/03 02:51:24;;;;;;;15.73;10.88;;;20.70;99.90;;;;;;5004535;28;20403;-75
2023/07/03 02:53:50;;;;;;;14.20;11.52;;;20.70;99.90;;;;;;5013759;28;20038;-74
2023/07/03 02:56:16;;;;;;;14.32;12.20;;;20.70;99.90;;;;;;5013511;28;20384;-74
2023/07/03 02:58:42;;;;;;;14.38;13.00;;;20.70;99.90;;;;;;5013704;28;20033;-74
2023/07/03 03:01:08;;;;;;;15.00;13.52;;;20.60;99.90;;;;;;5012561;28;20030;-73
2023/07/03 03:03:34;;;;;;;20.45;14.48;;;20.60;99.90;;;;;;5013499;28;20036;-74
2023/07/03 03:06:00;;;;;;;17.35;15.95;;;20.60;99.90;;;;;;5013297;28;20049;-74
2023/07/03 03:08:26;;;;;;;19.02;15.13;;;20.50;99.90;;;;;;5013365;28;20387;-73
2023/07/03 03:10:53;;;;;;;17.40;15.05;;;20.50;99.90;;;;;;5012960;28;20042;-74
2023/07/03 03:13:19;;;;;;;16.73;14.38;;;20.60;99.90;;;;;;5013379;28;20383;-74
2023/07/03 03:15:45;;;;;;;16.88;15.18;;;20.60;99.90;;;;;;5012327;28;20030;-73
2023/07/03 03:18:11;;;;;;;16.25;14.52;;;20.60;99.90;;;;;;5013388;28;20030;-74
2023/07/03 03:20:38;;;;;;;15.88;14.27;;;20.60;99.90;;;;;;5012264;28;20128;-72
2023/07/03 03:23:04;;;;;;;18.65;16.75;;;20.60;99.90;;;;;;5012682;28;20376;-74
2023/07/03 03:25:30;;;;;;;17.10;14.73;;;20.70;99.90;;;;;;5012808;28;20034;-74
2023/07/03 03:27:57;;;;;;;17.33;15.60;;;20.70;99.90;;;;;;5013257;28;20036;-74
2023/07/03 03:30:24;;;;;;;16.45;15.00;;;20.70;99.90;;;;;;5008607;28;20045;-74
2023/07/03 03:32:50;;;;;;;18.20;16.40;;;20.70;99.90;;;;;;4993877;28;20038;-74
2023/07/03 03:35:16;;;;;;;18.13;16.67;;;20.60;99.90;;;;;;4993997;28;20034;-74
2023/07/03 03:37:42;;;;;;;19.90;18.30;;;20.60;99.90;;;;;;4993235;28;20060;-75
2023/07/03 03:40:09;;;;;;;19.92;18.15;;;20.60;99.90;;;;;;4992973;28;20019;-74
2023/07/03 03:42:36;;;;;;;18.85;17.45;;;20.70;99.90;;;;;;4993512;28;20045;-74
2023/07/03 03:45:03;;;;;;;20.75;18.98;;;20.60;99.90;;;;;;5008307;28;20576;-74
2023/07/03 03:47:29;;;;;;;22.30;20.50;;;20.50;99.90;;;;;;5009636;28;20518;-74
2023/07/03 03:49:55;;;;;;;21.23;19.90;;;20.50;99.90;;;;;;4993179;28;20061;-74
2023/07/03 03:52:21;;;;;;;24.27;22.55;;;20.50;99.90;;;;;;4993125;28;20384;-75
2023/07/03 03:54:47;;;;;;;21.40;19.75;;;20.50;99.90;;;;;;4993189;28;20034;-74
2023/07/03 03:57:13;;;;;;;21.13;19.52;;;20.50;99.90;;;;;;5006295;28;20041;-74
2023/07/03 03:59:40;;;;;;;23.15;21.30;;;20.50;99.90;;;;;;5012720;28;20052;-74
2023/07/03 04:02:06;;;;;;;23.63;22.02;;;20.50;99.90;;;;;;5027137;28;20041;-74
2023/07/03 04:04:32;;;;;;;25.27;23.58;;;20.60;99.90;;;;;;5012721;28;20034;-74
2023/07/03 04:06:58;;;;;;;23.70;22.05;;;20.60;99.90;;;;;;5027567;28;20034;-74
2023/07/03 04:09:24;;;;;;;25.92;24.00;;;20.60;99.90;;;;;;5012672;28;20057;-74
2023/07/03 04:11:50;;;;;;;22.45;20.83;;;20.50;99.90;;;;;;5012079;28;20029;-73
2023/07/03 04:14:16;;;;;;;25.63;23.90;;;20.50;99.90;;;;;;5012598;28;20471;-74
2023/07/03 04:16:43;;;;;;;26.48;25.02;;;20.60;99.90;;;;;;5011762;28;20038;-74
2023/07/03 04:19:09;;;;;;;26.08;24.40;;;20.60;99.90;;;;;;5028040;28;20038;-74
2023/07/03 04:21:35;;;;;;;24.25;22.70;;;20.50;99.90;;;;;;5027383;28;20042;-74
2023/07/03 04:24:01;;;;;;;24.67;23.15;;;20.50;99.90;;;;;;5012538;28;20029;-74
2023/07/03 04:26:27;;;;;;;24.73;23.27;;;20.40;99.90;;;;;;5011914;28;20026;-74
2023/07/03 04:28:53;;;;;;;25.48;23.90;;;20.40;99.90;;;;;;5012406;28;20096;-74
2023/07/03 04:31:19;;;;;;;29.55;27.80;;;20.50;99.90;;;;;;5002255;28;20038;-73
2023/07/03 04:33:46;;;;;;;23.45;21.92;;;20.50;99.90;;;;;;4995408;28;20027;-74
2023/07/03 04:36:12;;;;;;;26.95;25.40;;;20.50;99.90;;;;;;4997209;28;20044;-73
2023/07/03 04:38:41;;;;;;;27.52;25.85;;;20.50;99.90;;;;;;4996723;28;20033;-73
2023/07/03 04:41:08;;;;;;;27.83;26.17;;;20.50;99.90;;;;;;4997142;28;20384;-74
2023/07/03 04:43:34;;;;;;;31.75;29.95;;;20.40;99.90;;;;;;4996604;28;20023;-74
2023/07/03 04:46:03;;;;;;;27.08;25.42;;;20.40;99.90;;;;;;5003748;28;20045;-73
2023/07/03 04:48:30;;;;;;;32.70;30.73;;;20.40;99.90;;;;;;5020604;28;20039;-74
2023/07/03 04:50:56;;;;;;;35.05;33.20;;;20.40;99.90;;;;;;5002431;28;20050;-75
2023/07/03 04:53:23;;;;;;;33.33;31.25;;;20.50;99.90;;;;;;5015968;28;20022;-74
2023/07/03 04:55:50;;;;;;;38.90;36.78;;;20.50;99.90;;;;;;5015621;28;20042;-74
2023/07/03 04:58:16;;;;;;;37.83;35.75;;;20.50;99.90;;;;;;5015928;28;20106;-73
2023/07/03 05:00:42;;;;;;;39.10;36.90;;;20.40;99.90;;;;;;5015116;28;20041;-75
2023/07/03 05:03:08;;;;;;;34.63;32.47;;;20.40;99.90;;;;;;5015894;28;20379;-74
2023/07/03 05:05:34;;;;;;;34.88;33.05;;;20.50;99.90;;;;;;5015784;28;20053;-74
2023/07/03 05:08:00;;;;;;;37.17;35.13;;;20.50;99.90;;;;;;5015756;28;20026;-74
2023/07/03 05:10:26;;;;;;;36.47;34.42;;;20.40;99.90;;;;;;5015100;28;20509;-74
2023/07/03 05:12:52;;;;;;;37.03;35.03;;;20.30;99.90;;;;;;5015558;28;20037;-74
2023/07/03 05:15:19;;;;;;;40.45;37.97;;;20.40;99.90;;;;;;5013585;28;20041;-74
2023/07/03 05:17:54;;;;;;;40.28;37.97;;;20.40;99.90;;;;;;5015565;28;20037;-74
2023/07/03 05:20:22;;;;;;;39.97;37.92;;;20.40;99.90;;;;;;5015132;28;20375;-74
2023/07/03 05:22:48;;;;;;;42.42;40.20;;;20.50;99.90;;;;;;5015626;28;20041;-76
2023/07/03 05:25:14;;;;;;;40.85;38.67;;;20.50;99.90;;;;;;5014797;28;20034;-74
2023/07/03 05:27:41;;;;;;;42.33;40.10;;;20.50;99.90;;;;;;5015395;28;20022;-74
2023/07/03 05:30:07;;;;;;;41.45;39.00;;;20.40;99.90;;;;;;5014785;28;20045;-74
2023/07/03 05:32:33;;;;;;;42.30;40.03;;;20.40;99.90;;;;;;4976787;28;20049;-74
2023/07/03 05:35:02;;;;;;;42.63;40.22;;;20.30;99.90;;;;;;4976252;28;20031;-73
2023/07/03 05:37:28;;;;;;;41.03;38.75;;;20.30;99.90;;;;;;4994426;28;20031;-74
2023/07/03 05:39:55;;;;;;;42.47;40.25;;;20.40;99.90;;;;;;4995995;28;20034;-74
2023/07/03 05:42:21;;;;;;;39.03;36.88;;;20.40;99.90;;;;;;4995448;28;20030;-74
2023/07/03 05:44:47;;;;;;;44.55;41.95;;;20.30;99.90;;;;;;4994287;28;20033;-74
2023/07/03 05:47:14;;;;;;;42.00;39.75;;;20.30;99.90;;;;;;5027756;28;20425;-74
2023/07/03 05:49:40;;;;;;;43.22;40.83;;;20.20;99.90;;;;;;4995055;28;20046;-74
2023/07/03 05:52:06;;;;;;;44.72;42.40;;;20.30;99.90;;;;;;5009582;28;20041;-74
2023/07/03 05:54:33;;;;;;;41.15;38.60;;;20.30;99.90;;;;;;5014516;28;20030;-74
2023/07/03 05:57:01;;;;;;;44.15;41.85;;;20.30;99.90;;;;;;5014542;28;20048;-74
2023/07/03 05:59:27;;;;;;;45.67;43.22;;;20.40;99.90;;;;;;5014800;28;20378;-74
2023/07/03 06:01:54;;;;;;;45.38;42.70;;;20.40;99.90;;;;;;5014075;28;20030;-74
2023/07/03 06:04:22;;;;;;;54.53;51.78;;;20.50;99.90;;;;;;5029849;28;20364;-75
2023/07/03 06:06:52;;;;;;;41.90;39.60;;;20.50;99.90;;;;;;5014287;28;20042;-74
2023/07/03 06:09:18;;;;;;;40.60;38.40;;;20.10;99.90;;;;;;5014701;28;20049;-72
2023/07/03 06:11:44;;;;;;;44.35;41.85;;;19.80;99.90;;;;;;5014179;28;20038;-74
2023/07/03 06:14:17;;;;;;;40.08;37.92;;;19.70;99.90;;;;;;5014523;28;20041;-74
2023/07/03 06:16:44;;;;;;;32.20;30.10;;;19.60;99.90;;;;;;5013896;28;20034;-74
2023/07/03 06:19:11;;;;;;;15.50;14.00;;;19.50;99.90;;;;;;5014970;28;20041;-74
2023/07/03 06:21:37;;;;;;;17.88;16.65;;;19.30;99.90;;;;;;5014004;28;20037;-74
2023/07/03 06:24:05;;;;;;;14.35;13.23;;;19.20;99.90;;;;;;5014265;28;20045;-73
2023/07/03 06:26:33;;;;;;;16.75;14.98;;;19.00;99.90;;;;;;5029192;28;20034;-74
2023/07/03 06:29:02;;;;;;;19.67;18.20;;;19.00;99.90;;;;;;5014689;28;20042;-74
2023/07/03 06:31:28;;;;;;;19.05;17.52;;;19.10;99.90;;;;;;5009453;28;20404;-74
2023/07/03 06:33:55;;;;;;;10.75;9.20;;;19.20;99.90;;;;;;4994426;28;20038;-74
2023/07/03 06:36:21;;;;;;;11.40;10.32;;;19.20;99.90;;;;;;4994182;28;20490;-74
2023/07/03 06:38:51;;;;;;;14.65;13.30;;;19.20;99.90;;;;;;4994096;28;20033;-74
2023/07/03 06:41:17;;;;;;;14.00;12.45;;;19.10;99.90;;;;;;5024456;28;20049;-74
2023/07/03 06:43:43;;;;;;;14.88;12.82;;;19.10;99.90;;;;;;4994316;28;20034;-74
2023/07/03 06:46:10;;;;;;;14.57;13.20;;;19.10;99.90;;;;;;5002680;28;20037;-74
2023/07/03 06:48:39;;;;;;;13.45;11.88;;;19.20;99.90;;;;;;5013758;28;20064;-73
2023/07/03 06:51:06;;;;;;;20.33;18.65;;;19.20;99.90;;;;;;5013395;28;20049;-74
2023/07/03 06:53:32;;;;;;;16.45;14.90;;;19.20;99.90;;;;;;5013302;28;20455;-74
2023/07/03 06:55:59;;;;;;;28.83;26.77;;;19.10;99.90;;;;;;5013232;28;20394;-74
2023/07/03 06:58:25;;;;;;;29.20;27.10;;;19.00;99.90;;;;;;5013727;28;20041;-74
2023/07/03 07:00:51;;;;;;;30.58;28.48;;;18.80;99.90;;;;;;5012935;28;20034;-74
2023/07/03 07:03:17;;;;;;;26.67;24.88;;;18.70;99.90;;;;;;5013618;28;20101;-74
2023/07/03 07:05:44;;;;;;;27.70;25.60;;;18.70;99.90;;;;;;5012970;28;20030;-73
2023/07/03 07:08:16;;;;;;;28.67;26.63;;;18.70;99.90;;;;;;5013433;28;20049;-74
2023/07/03 07:10:43;;;;;;;28.63;26.52;;;18.70;99.90;;;;;;5013089;28;20033;-74
2023/07/03 07:13:10;;;;;;;36.45;34.15;;;18.90;99.90;;;;;;5013348;28;20030;-74
2023/07/03 07:15:37;;;;;;;40.92;38.03;;;19.10;99.90;;;;;;5012818;28;20069;-74
2023/07/03 07:18:04;;;;;;;26.48;24.42;;;19.30;99.90;;;;;;5013317;28;20390;-74
2023/07/03 07:20:30;;;;;;;23.90;21.98;;;19.20;99.90;;;;;;5011461;28;20065;-74
2023/07/03 07:22:56;;;;;;;31.15;28.95;;;19.30;99.90;;;;;;5028616;28;20034;-74
2023/07/03 07:25:22;;;;;;;32.50;30.25;;;19.40;99.90;;;;;;5012902;28;20030;-74
2023/07/03 07:27:48;;;;;;;22.67;20.88;;;19.30;99.90;;;;;;5013120;28;20034;-73
2023/07/03 07:30:14;;;;;;;18.05;16.52;;;19.50;99.90;;;;;;5012327;28;20042;-73
2023/07/03 07:32:40;;;;;;;18.25;16.42;;;19.60;99.90;;;;;;5012990;28;20030;-75
2023/07/03 07:35:08;;;;;;;15.45;13.50;;;19.80;99.90;;;;;;5012774;28;20034;-74
2023/07/03 07:37:34;;;;;;;16.58;15.10;;;20.00;99.90;;;;;;5009792;28;20034;-74
2023/07/03 07:40:00;;;;;;;20.13;18.33;;;20.00;99.90;;;;;;5013259;28;20061;-73
2023/07/03 07:42:29;;;;;;;15.02;13.80;;;20.00;99.90;;;;;;5012608;28;20033;-73
2023/07/03 07:44:55;;;;;;;16.70;14.60;;;20.10;99.90;;;;;;5012975;28;20435;-75
2023/07/03 07:47:21;;;;;;;16.95;15.35;;;20.10;99.90;;;;;;5012141;28;20034;-74
2023/07/03 07:49:47;;;;;;;18.52;16.75;;;20.10;99.90;;;;;;5012232;28;20495;-74
2023/07/03 07:52:15;;;;;;;18.33;16.63;;;20.00;99.90;;;;;;5012526;28;20033;-74
2023/07/03 07:54:41;;;;;;;17.85;16.25;;;20.10;99.90;;;;;;5012763;28;20045;-73
2023/07/03 07:57:08;;;;;;;19.33;17.42;;;20.30;99.90;;;;;;5012448;28;20034;-74
2023/07/03 07:59:35;;;;;;;18.52;16.88;;;20.50;99.90;;;;;;5012841;28;20041;-74
2023/07/03 08:02:01;;;;;;;17.23;15.60;;;20.50;99.90;;;;;;5012219;28;20042;-74
2023/07/03 08:04:27;;;;;;;24.75;22.77;;;20.70;99.90;;;;;;5012420;28;20045;-74
2023/07/03 08:06:53;;;;;;;19.23;17.27;;;20.60;99.90;;;;;;5012081;28;20038;-74
2023/07/03 08:09:22;;;;;;;20.45;18.75;;;20.70;99.90;;;;;;5012239;28;20022;-73
2023/07/03 08:11:48;;;;;;;19.45;17.50;;;20.70;99.90;;;;;;5027485;28;20037;-75
2023/07/03 08:14:14;;;;;;;20.27;18.60;;;20.70;99.90;;;;;;5011119;28;20038;-74
2023/07/03 08:16:40;;;;;;;20.95;19.25;;;20.60;99.90;;;;;;5011956;28;20046;-74
2023/07/03 08:19:06;;;;;;;22.77;21.02;;;20.80;99.90;;;;;;5012177;28;20030;-74
2023/07/03 08:21:32;;;;;;;19.70;18.02;;;20.70;99.90;;;;;;5012244;28;20053;-74
2023/07/03 08:23:58;;;;;;;21.50;19.63;;;20.80;99.90;;;;;;5012511;28;20026;-73
2023/07/03 08:26:24;;;;;;;19.85;18.40;;;20.90;99.90;;;;;;5012355;28;20038;-74
2023/07/03 08:28:50;;;;;;;20.30;18.70;;;21.00;99.90;;;;;;5012447;28;20037;-74
2023/07/03 08:31:17;;;;;;;24.25;22.27;;;21.20;99.90;;;;;;5011498;28;20523;-74
2023/07/03 08:33:43;;;;;;;24.63;22.50;;;21.30;99.90;;;;;;5012130;28;20045;-74
2023/07/03 08:36:09;;;;;;;24.73;22.92;;;21.40;99.90;;;;;;5012063;28;20033;-75
2023/07/03 08:38:35;;;;;;;25.77;23.98;;;21.50;99.90;;;;;;5012314;28;20026;-74
2023/07/03 08:41:01;;;;;;;27.65;25.02;;;21.50;99.90;;;;;;5012155;28;20045;-74
2023/07/03 08:43:40;;;;;;;26.80;24.90;;;21.50;99.90;;;;;;5012093;28;20034;-74
2023/07/03 08:46:19;;;;;;;29.88;27.58;;;21.70;99.90;;;;;;5011911;28;20046;-74
2023/07/03 08:48:45;;;;;;;30.10;28.30;;;21.80;99.90;;;;;;5026253;28;20042;-74
2023/07/03 08:51:14;;;;;;;28.73;26.65;;;22.20;99.90;;;;;;5010713;28;20061;-74
2023/07/03 08:53:41;;;;;;;34.70;32.08;;;22.30;99.90;;;;;;5027155;28;20041;-74
2023/07/03 08:56:21;;;;;;;33.25;31.23;;;22.60;99.90;;;;;;5026921;28;20037;-75
2023/07/03 08:58:50;;;;;;;30.15;28.15;;;23.00;99.90;;;;;;5011980;28;20049;-74
2023/07/03 09:01:23;;;;;;;29.73;27.73;;;23.40;99.90;;;;;;5026549;28;20037;-74
2023/07/03 09:04:14;;;;;;;30.27;28.30;;;23.60;99.90;;;;;;5027019;28;20029;-75
2023/07/03 09:06:51;;;;;;;25.75;23.80;;;23.80;99.90;;;;;;5012075;28;20043;-74
2023/07/03 09:09:28;;;;;;;25.45;23.85;;;24.00;99.90;;;;;;5027194;28;20042;-74
2023/07/03 09:12:07;;;;;;;25.75;24.10;;;24.10;99.90;;;;;;5025960;28;20042;-74
2023/07/03 09:14:37;;;;;;;25.38;23.77;;;24.20;99.90;;;;;;5011993;28;20041;-75
2023/07/03 09:17:07;;;;;;;24.88;23.10;;;24.20;99.90;;;;;;5025877;28;20037;-74
2023/07/03 09:19:33;;;;;;;24.70;22.92;;;24.30;99.90;;;;;;5029118;28;20026;-75
2023/07/03 09:21:59;;;;;;;24.17;22.50;;;24.50;99.90;;;;;;5030332;28;20476;-74
2023/07/03 09:24:26;;;;;;;21.98;20.42;;;24.60;99.90;;;;;;5030726;28;20038;-75
2023/07/03 09:27:21;;;;;;;27.45;25.55;;;24.80;99.90;;;;;;5030514;28;20033;-73
2023/07/03 09:29:47;;;;;;;25.23;23.35;;;24.90;99.90;;;;;;5015361;28;20041;-74
2023/07/03 09:32:23;;;;;;;21.48;19.98;;;25.00;99.90;;;;;;5028881;28;20049;-75
2023/07/03 09:35:15;;;;;;;16.83;15.63;;;25.20;99.90;;;;;;5015460;28;20387;-74
2023/07/03 09:37:46;;;;;;;16.85;15.55;;;25.40;99.90;;;;;;5014993;28;20049;-74
2023/07/03 09:40:14;;;;;;;19.58;18.27;;;25.40;99.90;;;;;;5014937;28;20033;-74
2023/07/03 09:42:41;;;;;;;21.85;20.15;;;25.20;99.90;;;;;;5030493;28;20045;-74
2023/07/03 09:45:15;;;;;;;21.52;19.92;;;25.10;99.90;;;;;;5029847;28;20069;-74
2023/07/03 09:47:45;;;;;;;23.00;21.33;;;25.00;99.90;;;;;;5029784;28;20037;-74
2023/07/03 09:50:11;;;;;;;22.52;20.95;;;24.80;99.90;;;;;;5014337;28;20077;-74
2023/07/03 09:52:44;;;;;;;19.75;18.27;;;24.70;99.90;;;;;;5030229;28;20037;-75
2023/07/03 09:55:11;;;;;;;20.17;18.67;;;24.60;99.90;;;;;;5015150;28;20053;-74
2023/07/03 09:57:37;;;;;;;22.77;21.13;;;24.60;99.90;;;;;;5014916;28;20041;-74
2023/07/03 10:00:11;;;;;;;19.75;18.17;;;24.70;99.90;;;;;;5014256;28;20041;-74
2023/07/03 10:02:37;;;;;;;20.63;19.23;;;24.60;99.90;;;;;;5014956;28;20483;-74
2023/07/03 10:05:06;;;;;;;20.15;18.60;;;24.60;99.90;;;;;;5014648;28;20021;-74
2023/07/03 10:07:38;;;;;;;21.52;20.02;;;24.70;99.90;;;;;;5014218;28;20046;-75
2023/07/03 10:10:10;;;;;;;21.30;19.80;;;24.80;99.90;;;;;;5014581;28;20545;-75
2023/07/03 10:12:46;;;;;;;20.20;18.75;;;24.70;99.90;;;;;;5029346;28;20041;-75
2023/07/03 10:15:19;;;;;;;20.50;18.90;;;24.60;99.90;;;;;;5028804;28;20033;-75
2023/07/03 10:17:52;;;;;;;20.95;19.35;;;24.40;99.90;;;;;;5029467;28;20422;-74
2023/07/03 10:20:25;;;;;;;20.17;18.65;;;24.50;99.90;;;;;;5029324;28;20789;-74
2023/07/03 10:22:52;;;;;;;20.35;18.75;;;24.60;99.90;;;;;;5028990;28;20034;-74
2023/07/03 10:25:24;;;;;;;19.48;17.95;;;24.60;99.90;;;;;;5013906;28;20045;-74
2023/07/03 10:27:54;;;;;;;19.58;18.15;;;24.50;99.90;;;;;;5029641;28;20046;-74
2023/07/03 10:30:20;;;;;;;18.20;16.70;;;24.40;99.90;;;;;;5027428;28;20049;-74
2023/07/03 10:32:49;;;;;;;19.48;17.98;;;24.30;99.90;;;;;;5014300;28;20042;-74
2023/07/03 10:35:27;;;;;;;19.23;17.80;;;24.10;99.90;;;;;;5045592;28;20463;-75
2023/07/03 10:38:12;;;;;;;19.90;18.30;;;24.00;99.90;;;;;;4995508;28;20072;-74
2023/07/03 10:41:00;;;;;;;17.77;16.58;;;24.00;99.90;;;;;;5026292;28;20030;-74
2023/07/03 10:43:28;;;;;;;19.88;18.48;;;24.10;99.90;;;;;;5013574;28;20041;-74
2023/07/03 10:45:55;;;;;;;18.67;17.17;;;24.10;99.90;;;;;;5028468;28;20033;-74
2023/07/03 10:48:23;;;;;;;18.75;17.15;;;24.10;99.90;;;;;;5028945;28;20029;-74
2023/07/03 10:51:07;;;;;;;17.98;16.77;;;24.30;99.90;;;;;;5012082;28;20052;-75
2023/07/03 10:53:37;;;;;;;18.17;16.73;;;24.60;99.90;;;;;;5013824;28;20026;-74
2023/07/03 10:56:10;;;;;;;19.70;18.15;;;24.90;99.90;;;;;;5028912;28;20029;-74
2023/07/03 10:58:42;;;;;;;17.85;16.58;;;25.10;99.90;;;;;;5013534;28;20498;-74
2023/07/03 11:01:38;;;;;;;16.70;15.18;;;25.20;99.90;;;;;;5028336;28;20049;-74
2023/07/03 11:04:17;;;;;;;20.52;18.73;;;25.20;99.90;;;;;;5030319;28;20041;-75
2023/07/03 11:06:49;;;;;;;17.13;15.82;;;25.20;99.90;;;;;;5015420;28;20490;-74
2023/07/03 11:09:33;;;;;;;18.38;16.98;;;25.20;99.90;;;;;;4998922;28;20176;-75
2023/07/03 11:12:05;;;;;;;16.90;15.60;;;25.10;99.90;;;;;;5014406;28;20053;-74
2023/07/03 11:15:01;;;;;;;18.65;17.23;;;25.10;99.90;;;;;;5030575;28;20038;-74
2023/07/03 11:17:50;;;;;;;19.73;18.13;;;25.20;99.90;;;;;;5013006;28;20037;-74
2023/07/03 11:20:22;;;;;;;19.90;18.30;;;25.30;99.90;;;;;;5029427;28;20438;-74
2023/07/03 11:22:54;;;;;;;21.63;20.23;;;25.40;99.90;;;;;;5030787;28;20041;-74
2023/07/03 11:25:24;;;;;;;23.95;22.30;;;25.50;99.90;;;;;;5030351;28;20025;-73
2023/07/03 11:28:11;;;;;;;27.58;25.67;;;25.60;99.90;;;;;;4997419;28;20033;-75
2023/07/03 11:30:39;;;;;;;26.00;24.40;;;25.90;99.90;;;;;;5029797;28;20541;-75
2023/07/03 11:33:05;;;;;;;26.52;24.73;;;25.90;99.90;;;;;;5046350;28;20041;-75
2023/07/03 11:35:32;;;;;;;27.73;26.02;;;26.00;99.90;;;;;;5045945;28;20549;-74
2023/07/03 11:38:10;;;;;;;29.60;27.30;;;26.10;99.90;;;;;;5046458;28;20049;-75
2023/07/03 11:40:38;;;;;;;29.13;27.08;;;26.20;99.90;;;;;;5019092;28;20498;-75
2023/07/03 11:43:29;;;;;;;29.92;27.98;;;26.40;99.90;;;;;;5027102;28;20057;-75
2023/07/03 11:45:58;;;;;;;27.85;26.05;;;26.60;99.90;;;;;;5012750;28;20026;-74
2023/07/03 11:48:28;;;;;;;29.55;27.55;;;26.80;99.90;;;;;;5012759;28;20026;-74
2023/07/03 11:50:59;;;;;;;26.20;24.35;;;27.00;99.90;;;;;;5012657;28;20037;-74
2023/07/03 11:53:35;;;;;;;28.67;26.80;;;27.20;99.40;;;;;;5027810;28;20391;-74
2023/07/03 11:56:03;;;;;;;34.15;31.95;;;27.30;99.90;;;;;;5027272;28;20037;-75
2023/07/03 11:58:30;;;;;;;27.30;25.40;;;27.50;99.90;;;;;;5029566;28;20035;-74
2023/07/03 12:01:21;;;;;;;27.73;25.92;;;27.40;98.50;;;;;;5012198;28;20041;-74
2023/07/03 12:03:48;;;;;;;30.05;28.05;;;27.30;99.00;;;;;;5012853;28;20399;-74
2023/07/03 12:06:40;;;;;;;29.00;27.02;;;27.30;99.30;;;;;;5027496;28;20034;-75
2023/07/03 12:09:21;;;;;;;29.77;27.88;;;27.40;98.70;;;;;;5012626;28;20030;-75
2023/07/03 12:12:07;;;;;;;31.20;29.10;;;27.50;99.10;;;;;;5012380;28;20491;-75
2023/07/03 12:14:56;;;;;;;28.98;27.13;;;27.60;99.80;;;;;;5012880;28;20068;-75
2023/07/03 12:17:28;;;;;;;31.33;29.30;;;27.50;98.60;;;;;;5011989;28;20491;-74
2023/07/03 12:20:19;;;;;;;27.42;25.65;;;27.50;99.00;;;;;;5013036;28;20046;-75
2023/07/03 12:22:46;;;;;;;29.95;28.02;;;27.40;98.30;;;;;;5012978;28;20069;-74
2023/07/03 12:25:26;;;;;;;30.73;28.63;;;27.40;99.30;;;;;;5011798;28;20042;-75
2023/07/03 12:27:52;;;;;;;28.38;26.52;;;27.50;99.70;;;;;;5012416;28;20478;-74
2023/07/03 12:30:30;;;;;;;30.35;28.30;;;27.60;98.20;;;;;;5026577;28;20030;-74
2023/07/03 12:32:57;;;;;;;30.50;28.60;;;27.60;99.10;;;;;;5043656;28;20030;-74
2023/07/03 12:35:24;;;;;;;29.98;28.13;;;27.60;98.80;;;;;;5012027;28;20026;-74
2023/07/03 12:37:56;;;;;;;27.55;25.77;;;27.50;98.60;;;;;;4992887;28;20476;-75